createdAt,value
2023-11-26T19:50:51.240Z,6.47
2023-11-26T19:51:51.211Z,6.46
2023-11-26T19:52:51.100Z,6.53
2023-11-26T19:53:51.083Z,6.53
2023-11-26T19:54:51.061Z,6.46
2023-11-26T19:55:50.943Z,6.46
2023-11-26T19:56:50.883Z,6.38
2023-11-26T19:57:50.849Z,6.44
2023-11-26T19:58:50.794Z,6.44
2023-11-26T19:59:53.362Z,6.39
2023-11-26T20:00:50.749Z,6.44
2023-11-26T20:01:50.719Z,6.44
2023-11-26T20:02:50.720Z,6.38
2023-11-26T20:03:50.644Z,6.39
2023-11-26T20:04:50.496Z,6.46
2023-11-26T20:05:50.438Z,6.43
2023-11-26T20:06:50.457Z,6.38
2023-11-26T20:07:50.346Z,6.41
2023-11-26T20:08:50.294Z,6.46
2023-11-26T20:09:50.271Z,6.38
2023-11-26T20:10:50.208Z,6.39
2023-11-26T20:11:50.154Z,6.39
2023-11-26T20:12:50.139Z,6.46
2023-11-26T20:13:50.058Z,6.47
2023-11-26T20:14:50.013Z,6.46
2023-11-26T20:15:49.976Z,6.47
2023-11-26T20:16:49.917Z,6.49
2023-11-26T20:17:50.089Z,6.41
2023-11-26T20:18:49.852Z,6.39
2023-11-26T20:19:49.868Z,6.47
2023-11-26T20:20:49.732Z,6.47
2023-11-26T20:21:49.728Z,6.49
2023-11-26T20:22:49.685Z,6.44
2023-11-26T20:23:49.652Z,6.46
2023-11-26T20:24:49.670Z,6.50
2023-11-26T20:25:49.518Z,6.41
2023-11-26T20:26:49.457Z,6.50
2023-11-26T20:27:49.451Z,6.60
2023-11-26T20:28:49.364Z,6.52
2023-11-26T20:29:49.504Z,6.50
2023-11-26T20:30:51.584Z,6.57
2023-11-26T20:31:49.259Z,6.52
2023-11-26T20:33:49.260Z,6.54
2023-11-26T20:34:49.133Z,6.53
2023-11-26T20:35:49.042Z,6.57
2023-11-26T20:36:49.027Z,6.53
2023-11-26T20:37:48.977Z,6.53
2023-11-26T20:38:48.961Z,6.54
2023-11-26T20:39:48.934Z,6.50
2023-11-26T20:40:48.804Z,6.50
2023-11-26T20:41:48.850Z,6.60
2023-11-26T20:42:48.743Z,6.52
2023-11-26T20:43:48.682Z,6.53
2023-11-26T20:44:48.639Z,6.47
2023-11-26T20:50:48.761Z,6.49
2023-11-26T20:51:48.350Z,6.49
2023-11-26T20:52:48.259Z,6.53
2023-11-26T20:53:48.208Z,6.50
2023-11-26T20:54:48.234Z,6.57
2023-11-26T20:55:48.130Z,6.49
2023-11-26T20:56:48.069Z,6.52
2023-11-26T20:57:48.091Z,6.49
2023-11-26T20:58:47.973Z,6.52
2023-11-26T20:59:47.926Z,6.52
2023-11-26T21:00:47.915Z,6.57
2023-11-26T21:01:47.936Z,6.49
2023-11-26T21:02:47.855Z,6.52
2023-11-26T21:03:47.912Z,6.49
2023-11-26T21:04:47.715Z,6.47
2023-11-26T21:05:47.665Z,6.59
2023-11-26T21:06:47.693Z,6.49
2023-11-26T21:07:47.558Z,6.52
2023-11-26T21:08:47.512Z,6.52
2023-11-26T21:09:47.489Z,6.60
2023-11-26T21:10:47.444Z,6.54
2023-11-26T21:11:47.372Z,6.50
2023-11-26T21:12:47.366Z,6.52
2023-11-26T21:14:30.688Z,6.49
2023-11-26T21:15:30.618Z,6.57
2023-11-26T21:16:30.616Z,6.50
2023-11-26T21:17:30.549Z,6.56
2023-11-26T21:18:30.479Z,6.56
2023-11-26T21:19:30.437Z,6.60
2023-11-26T21:20:30.392Z,6.54
2023-11-26T21:21:30.336Z,6.54
2023-11-26T21:22:30.297Z,6.60
2023-11-26T21:24:30.202Z,6.68
2023-11-26T21:25:30.148Z,6.57
2023-11-26T21:26:30.169Z,6.64
2023-11-26T21:27:30.051Z,6.53
2023-11-26T21:28:30.005Z,6.64
2023-11-26T21:29:29.970Z,6.65
2023-11-26T21:30:29.921Z,6.64
2023-11-26T21:31:29.863Z,6.67
2023-11-26T21:32:29.887Z,6.65
2023-11-26T21:33:29.792Z,6.56
2023-11-26T21:34:29.880Z,6.68
2023-11-26T21:35:29.685Z,6.71
2023-11-26T21:36:29.624Z,6.62
2023-11-26T21:37:29.598Z,6.64
2023-11-26T21:38:29.540Z,6.68
2023-11-26T21:39:29.485Z,6.62
2023-11-26T21:40:29.432Z,6.62
2023-11-26T21:41:29.395Z,6.64
2023-11-26T21:42:29.355Z,6.65
2023-11-26T21:43:29.292Z,6.68
2023-11-26T21:44:29.241Z,6.54
2023-11-26T21:45:29.213Z,6.52
2023-11-26T21:46:35.773Z,6.53
2023-11-26T21:47:29.229Z,6.57
2023-11-26T21:48:29.049Z,6.50
2023-11-26T21:49:29.002Z,6.54
2023-11-26T21:50:28.955Z,6.53
2023-11-26T21:51:28.907Z,6.52
2023-11-26T21:52:28.877Z,6.60
2023-11-26T21:54:12.232Z,6.47
2023-11-26T21:55:12.202Z,6.59
2023-11-26T21:56:12.113Z,6.38
2023-11-26T21:57:12.069Z,6.46
2023-11-26T21:58:12.093Z,6.46
2023-11-26T21:59:11.965Z,6.39
2023-11-26T22:00:11.929Z,6.46
2023-11-26T22:01:11.940Z,6.46
2023-11-26T22:02:11.911Z,6.46
2023-11-26T22:03:11.888Z,6.44
2023-11-26T22:04:11.751Z,6.39
2023-11-26T22:05:11.679Z,6.39
2023-11-26T22:06:11.633Z,6.44
2023-11-26T22:07:11.637Z,6.43
2023-11-26T22:08:11.534Z,6.44
2023-11-26T22:09:11.486Z,6.38
2023-11-26T22:10:11.495Z,6.43
2023-11-26T22:11:11.400Z,6.36
2023-11-26T22:12:11.351Z,6.32
2023-11-26T22:13:11.354Z,6.35
2023-11-26T22:14:11.291Z,6.38
2023-11-26T22:15:11.198Z,6.26
2023-11-26T22:16:11.195Z,6.25
2023-11-26T22:17:11.160Z,6.34
2023-11-26T22:18:11.131Z,6.43
2023-11-26T22:19:11.047Z,6.22
2023-11-26T22:20:10.958Z,6.35
2023-11-26T22:21:10.920Z,6.22
2023-11-26T22:22:10.895Z,6.22
2023-11-26T22:23:12.235Z,6.34
2023-11-26T22:24:10.774Z,6.35
2023-11-26T22:25:10.745Z,6.20
2023-11-26T22:26:10.673Z,6.35
2023-11-26T22:27:10.621Z,6.29
2023-11-26T22:28:10.617Z,6.36
2023-11-26T22:29:10.526Z,6.38
2023-11-26T22:30:12.841Z,6.20
2023-11-26T22:31:10.469Z,6.29
2023-11-26T22:32:10.432Z,6.25
2023-11-26T22:33:10.351Z,6.34
2023-11-26T22:34:10.376Z,6.28
2023-11-26T22:35:10.234Z,6.22
2023-11-26T22:36:10.198Z,6.29
2023-11-26T22:37:10.176Z,6.26
2023-11-26T22:38:10.419Z,6.28
2023-11-26T22:39:10.066Z,6.31
2023-11-26T22:40:10.023Z,6.26
2023-11-26T22:41:09.955Z,6.28
2023-11-26T22:42:09.952Z,6.32
2023-11-26T22:43:09.920Z,6.31
2023-11-26T22:44:09.812Z,6.26
2023-11-26T22:45:09.755Z,6.29
2023-11-26T22:46:09.792Z,6.32
2023-11-26T22:47:09.685Z,6.28
2023-11-26T22:48:09.613Z,6.25
2023-11-26T22:49:09.579Z,6.26
2023-11-26T22:50:09.513Z,6.29
2023-11-26T22:51:09.466Z,6.26
2023-11-26T22:52:09.482Z,6.26
2023-11-26T22:53:09.370Z,6.26
2023-11-26T22:54:09.319Z,6.31
2023-11-26T22:55:09.332Z,6.28
2023-11-26T22:56:09.237Z,6.26
2023-11-26T22:57:09.178Z,6.34
2023-11-26T22:58:09.155Z,6.22
2023-11-26T22:59:09.079Z,6.31
2023-11-26T23:00:09.032Z,6.31
2023-11-26T23:01:09.054Z,6.28
2023-11-26T23:02:09.074Z,6.31
2023-11-26T23:03:09.150Z,6.26
2023-11-26T23:04:08.922Z,6.31
2023-11-26T23:05:08.791Z,6.31
2023-11-26T23:06:08.760Z,6.20
2023-11-26T23:07:08.781Z,6.26
2023-11-26T23:08:08.675Z,6.26
2023-11-26T23:09:08.609Z,6.26
2023-11-26T23:10:08.582Z,6.32
2023-11-26T23:11:08.502Z,6.28
2023-11-26T23:12:08.456Z,6.31
2023-11-26T23:13:08.444Z,6.28
2023-11-26T23:14:08.360Z,6.28
2023-11-26T23:15:08.307Z,6.20
2023-11-26T23:16:08.318Z,6.29
2023-11-26T23:17:08.234Z,6.29
2023-11-26T23:18:08.304Z,6.20
2023-11-26T23:19:08.142Z,6.28
2023-11-26T23:20:08.071Z,6.20
2023-11-26T23:21:08.022Z,6.25
2023-11-26T23:22:08.028Z,6.31
2023-11-26T23:23:07.925Z,6.20
2023-11-26T23:24:07.877Z,6.20
2023-11-26T23:26:07.776Z,6.26
2023-11-26T23:27:07.728Z,6.17
2023-11-26T23:28:07.765Z,6.22
2023-11-26T23:30:07.853Z,6.19
2023-11-26T23:31:07.551Z,6.13
2023-11-26T23:32:07.504Z,6.13
2023-11-26T23:33:07.548Z,6.12
2023-11-26T23:34:07.466Z,6.15
2023-11-26T23:35:07.339Z,6.17
2023-11-26T23:36:07.326Z,6.16
2023-11-26T23:37:07.274Z,6.17
2023-11-26T23:38:07.213Z,6.22
2023-11-26T23:39:07.143Z,6.15
2023-11-26T23:40:07.115Z,6.15
2023-11-26T23:41:09.302Z,6.10
2023-11-26T23:42:07.009Z,6.17
2023-11-26T23:43:07.006Z,6.16
2023-11-26T23:44:06.907Z,6.10
2023-11-26T23:45:06.874Z,6.13
2023-11-26T23:46:06.925Z,6.10
2023-11-26T23:47:06.795Z,6.12
2023-11-26T23:48:06.772Z,6.19
2023-11-26T23:49:09.287Z,6.09
2023-11-26T23:50:06.636Z,6.20
2023-11-26T23:51:06.570Z,6.12
2023-11-26T23:52:06.569Z,6.19
2023-11-26T23:53:06.476Z,6.12
2023-11-26T23:54:06.419Z,6.20
